Time;durP1;ratioP1;P1;durP2;ratioP2;P2;SDS_P1;SDS_P2;PMS_P1;PMS_P2;Temp;Humidity;BMP_temperature;BMP_pressure;BME280_temperature;BME280_humidity;BME280_pressure;Samples;Min_cycle;Max_cycle;Signal;HPM_P1;HPM_P2
2022/07/29 00:02:06;;;;;;;8.73;7.90;;;;;;;21.48;57.84;95073.28;5047952;28;20205;-62
2022/07/29 00:04:34;;;;;;;11.27;8.95;;;;;;;21.50;58.22;95073.09;5063561;28;20209;-63
2022/07/29 00:07:00;;;;;;;8.48;7.68;;;;;;;21.46;58.43;95083.38;5042791;28;20225;-62
2022/07/29 00:09:25;;;;;;;8.68;7.97;;;;;;;21.44;58.38;95085.47;5036158;28;20659;-62
2022/07/29 00:11:51;;;;;;;8.23;7.63;;;;;;;21.41;58.45;95093.09;5027873;28;20245;-61
2022/07/29 00:14:16;;;;;;;8.55;7.85;;;;;;;21.35;58.16;95084.88;5059390;28;20218;-63
2022/07/29 00:16:41;;;;;;;8.23;7.55;;;;;;;21.32;58.42;95085.31;5028487;28;20206;-62
2022/07/29 00:19:07;;;;;;;8.10;7.40;;;;;;;21.34;58.34;95088.59;5029725;28;20278;-62
2022/07/29 00:21:32;;;;;;;7.65;7.03;;;;;;;21.26;58.65;95096.06;5029498;28;20260;-62
2022/07/29 00:23:58;;;;;;;7.90;7.30;;;;;;;21.39;58.06;95095.19;5037769;28;20248;-63
2022/07/29 00:26:23;;;;;;;7.45;6.82;;;;;;;21.42;57.89;95086.72;5047312;28;20291;-63
2022/07/29 00:28:49;;;;;;;8.18;7.47;;;;;;;21.36;57.90;95086.53;5045214;28;20214;-63
2022/07/29 00:31:14;;;;;;;7.97;7.38;;;;;;;21.30;57.95;95087.41;5044940;28;20739;-63
2022/07/29 00:33:40;;;;;;;7.35;6.85;;;;;;;21.35;57.93;95082.19;5046216;28;20217;-63
2022/07/29 00:36:05;;;;;;;10.73;7.72;;;;;;;21.29;58.33;95083.06;5047378;28;20217;-63
2022/07/29 00:38:32;;;;;;;8.15;7.45;;;;;;;21.16;59.35;95080.50;5063711;28;20225;-62
2022/07/29 00:40:57;;;;;;;8.43;7.70;;;;;;;21.27;58.72;95082.47;5048999;28;20213;-62
2022/07/29 00:43:23;;;;;;;8.57;7.80;;;;;;;21.35;57.97;95084.06;5028731;28;20226;-62
2022/07/29 00:45:48;;;;;;;8.20;7.60;;;;;;;21.34;58.42;95088.59;5053660;28;20242;-62
2022/07/29 00:48:14;;;;;;;7.43;6.93;;;;;;;21.28;58.26;95088.66;5024277;28;20220;-62
2022/07/29 00:50:39;;;;;;;8.40;7.57;;;;;;;21.23;58.52;95088.50;5020342;28;20214;-63
2022/07/29 00:53:10;;;;;;;8.60;7.80;;;;;;;21.21;59.20;95088.69;5026153;28;20230;-62
2022/07/29 00:55:36;;;;;;;9.73;8.80;;;;;;;21.36;59.00;95099.09;5050225;28;20202;-62
2022/07/29 00:58:02;;;;;;;8.73;8.02;;;;;;;21.32;58.15;95092.53;5049203;28;20294;-63
2022/07/29 01:00:29;;;;;;;9.00;8.20;;;;;;;21.18;58.32;95094.47;5045758;28;20218;-62
2022/07/29 01:02:54;;;;;;;7.78;7.18;;;;;;;21.13;58.22;95092.44;5044017;28;20307;-62
2022/07/29 01:05:23;;;;;;;8.38;7.68;;;;;;;21.12;58.68;95090.00;5041459;28;20273;-62
2022/07/29 01:07:52;;;;;;;7.90;7.30;;;;;;;20.90;59.67;95084.13;5022354;28;20213;-63
2022/07/29 01:10:19;;;;;;;8.27;7.68;;;;;;;20.96;59.53;95083.31;5023168;28;20217;-63
2022/07/29 01:12:47;;;;;;;8.48;7.70;;;;;;;20.90;60.11;95086.81;5027177;28;20218;-63
2022/07/29 01:15:13;;;;;;;9.48;8.27;;;;;;;20.68;61.30;95084.47;5040654;28;20285;-63
2022/07/29 01:17:41;;;;;;;8.80;8.10;;;;;;;20.80;61.06;95083.81;5036482;28;20301;-63
2022/07/29 01:20:22;;;;;;;9.50;8.70;;;;;;;20.90;60.79;95081.47;5023098;28;20205;-63
2022/07/29 01:23:01;;;;;;;10.98;10.18;;;;;;;20.93;60.74;95081.06;5038929;28;20222;-63
2022/07/29 01:25:45;;;;;;;11.75;10.68;;;;;;;20.79;61.78;95076.81;5026395;28;20229;-62
2022/07/29 01:28:51;;;;;;;11.18;10.27;;;;;;;20.79;61.85;95076.81;5057282;28;20252;-62
2022/07/29 01:31:22;;;;;;;12.52;11.43;;;;;;;20.82;61.81;95071.88;5025099;28;20288;-63
2022/07/29 01:33:57;;;;;;;11.60;10.70;;;;;;;20.79;62.15;95074.13;5039938;28;20213;-64
2022/07/29 01:36:29;;;;;;;11.48;10.57;;;;;;;20.72;62.39;95066.16;5033655;28;20232;-64
2022/07/29 01:39:06;;;;;;;11.80;10.80;;;;;;;20.67;62.87;95066.78;5019785;28;20268;-63
2022/07/29 01:41:34;;;;;;;12.25;11.13;;;;;;;20.68;63.17;95054.25;5025466;28;20224;-63
2022/07/29 01:44:09;;;;;;;12.88;11.57;;;;;;;20.66;63.21;95059.81;5038912;28;20553;-63
2022/07/29 01:46:38;;;;;;;13.05;11.95;;;;;;;20.69;63.02;95058.59;5026657;28;20313;-63
2022/07/29 01:49:11;;;;;;;13.18;11.82;;;;;;;20.60;63.51;95066.00;5040851;28;20572;-63
2022/07/29 01:51:47;;;;;;;13.52;12.43;;;;;;;20.69;63.25;95064.75;5045502;28;20316;-63
2022/07/29 01:54:19;;;;;;;13.45;12.27;;;;;;;20.69;63.28;95064.75;5042883;28;20255;-63
2022/07/29 01:56:48;;;;;;;13.02;11.82;;;;;;;20.68;63.17;95064.94;5041958;28;20312;-63
2022/07/29 01:59:17;;;;;;;13.73;12.50;;;;;;;20.60;63.44;95068.66;5046000;28;20205;-61
2022/07/29 02:01:45;;;;;;;13.68;12.48;;;;;;;20.66;63.26;95059.81;5043674;28;20261;-64
2022/07/29 02:04:12;;;;;;;12.27;11.27;;;;;;;20.52;63.69;95058.19;5046565;28;20218;-62
2022/07/29 02:06:40;;;;;;;12.25;11.15;;;;;;;20.45;64.01;95052.09;5048129;28;20228;-62
2022/07/29 02:09:09;;;;;;;11.93;10.73;;;;;;;20.48;64.05;95057.00;5044597;28;20431;-61
2022/07/29 02:11:37;;;;;;;12.13;11.02;;;;;;;20.45;64.46;95052.09;5044299;28;20217;-62
2022/07/29 02:14:05;;;;;;;11.70;10.32;;;;;;;20.45;63.81;95049.41;5043829;28;20356;-63
2022/07/29 02:16:34;;;;;;;11.07;10.07;;;;;;;20.32;64.25;95044.94;5041755;28;20210;-62
2022/07/29 02:19:01;;;;;;;12.38;11.10;;;;;;;20.41;63.75;95040.19;5033431;28;20222;-62
2022/07/29 02:21:29;;;;;;;11.52;10.50;;;;;;;20.46;63.36;95040.38;5042279;28;20256;-62
2022/07/29 02:23:59;;;;;;;11.27;10.27;;;;;;;20.46;63.51;95045.69;5044652;28;20229;-62
2022/07/29 02:26:26;;;;;;;10.68;9.80;;;;;;;20.53;63.39;95037.66;5040175;28;20228;-63
2022/07/29 02:28:56;;;;;;;10.75;9.75;;;;;;;20.57;63.31;95042.38;5042423;28;20228;-62
2022/07/29 02:31:24;;;;;;;11.20;10.00;;;;;;;20.57;62.90;95039.72;5059389;28;20225;-62
2022/07/29 02:33:51;;;;;;;11.23;10.13;;;;;;;20.36;63.56;95040.00;5041024;28;20217;-63
2022/07/29 02:36:18;;;;;;;10.38;9.48;;;;;;;20.43;63.71;95038.13;5036475;28;20221;-62
2022/07/29 02:38:51;;;;;;;11.00;9.73;;;;;;;20.52;63.08;95031.50;5045116;28;20221;-62
2022/07/29 02:41:28;;;;;;;9.90;9.00;;;;;;;20.70;62.34;95028.16;5047765;28;20206;-62
2022/07/29 02:43:58;;;;;;;10.15;9.25;;;;;;;20.60;62.46;95023.25;5046552;28;20216;-62
2022/07/29 02:46:35;;;;;;;10.23;8.93;;;;;;;20.58;62.67;95020.00;5044575;28;20267;-62
2022/07/29 02:49:18;;;;;;;9.82;8.90;;;;;;;20.54;62.58;95013.44;5046194;28;20225;-62
2022/07/29 02:52:15;;;;;;;8.52;7.78;;;;;;;20.54;62.47;95017.97;5045017;28;20317;-62
2022/07/29 02:54:46;;;;;;;10.07;7.90;;;;;;;20.56;62.17;95016.72;4988352;28;20250;-62
2022/07/29 02:57:21;;;;;;;9.65;7.22;;;;;;;20.53;62.24;95021.63;4991107;28;20266;-62
2022/07/29 02:59:51;;;;;;;8.05;7.25;;;;;;;20.47;62.24;95012.59;4992561;28;20231;-63
2022/07/29 03:02:18;;;;;;;8.27;7.47;;;;;;;20.43;62.47;95022.09;5006321;28;20245;-63
2022/07/29 03:04:46;;;;;;;8.63;7.07;;;;;;;20.41;62.42;95019.63;5006397;28;20278;-62
2022/07/29 03:07:14;;;;;;;6.95;6.28;;;;;;;20.49;62.11;95018.56;5006920;28;20312;-63
2022/07/29 03:09:42;;;;;;;7.45;6.75;;;;;;;20.44;61.97;95013.84;5008771;28;20382;-63
2022/07/29 03:12:08;;;;;;;7.57;6.40;;;;;;;20.49;61.75;95018.56;4991144;28;20238;-62
2022/07/29 03:14:35;;;;;;;7.78;6.70;;;;;;;20.57;61.79;95015.69;5010017;28;20583;-63
2022/07/29 03:17:02;;;;;;;7.75;6.97;;;;;;;20.49;62.21;95022.06;4993884;28;20211;-63
2022/07/29 03:19:28;;;;;;;7.20;6.60;;;;;;;20.49;62.13;95024.72;4992895;28;20215;-62
2022/07/29 03:21:56;;;;;;;11.32;7.70;;;;;;;20.52;62.32;95025.34;4989304;28;20237;-63
2022/07/29 03:24:30;;;;;;;8.52;7.72;;;;;;;20.49;62.38;95015.91;5005503;28;20277;-63
2022/07/29 03:26:56;;;;;;;7.72;7.07;;;;;;;20.47;62.60;95026.81;4988446;28;20241;-63
2022/07/29 03:29:22;;;;;;;10.02;6.78;;;;;;;20.53;62.57;95024.28;4987877;28;20239;-63
2022/07/29 03:31:47;;;;;;;8.75;7.40;;;;;;;20.36;63.13;95019.44;5024854;28;20221;-63
2022/07/29 03:34:13;;;;;;;8.75;7.88;;;;;;;20.33;63.70;95029.72;5040258;28;20219;-62
2022/07/29 03:36:38;;;;;;;8.45;7.63;;;;;;;20.28;63.93;95031.19;5046841;28;20230;-63
2022/07/29 03:39:04;;;;;;;11.93;7.63;;;;;;;20.28;63.98;95031.19;5045054;28;20221;-63
2022/07/29 03:41:31;;;;;;;9.02;8.13;;;;;;;20.25;64.15;95028.13;5059806;28;20221;-62
2022/07/29 03:43:58;;;;;;;10.88;8.15;;;;;;;20.27;64.29;95036.75;5044899;28;20284;-62
2022/07/29 03:46:28;;;;;;;10.43;9.40;;;;;;;20.21;64.34;95043.75;5046013;28;20221;-62
2022/07/29 03:48:58;;;;;;;9.73;8.75;;;;;;;20.22;64.71;95037.38;5060889;28;20213;-63
2022/07/29 03:51:25;;;;;;;10.40;9.50;;;;;;;20.28;64.50;95039.19;5043940;28;20243;-63
2022/07/29 03:53:51;;;;;;;12.20;9.82;;;;;;;20.31;64.43;95043.28;5046876;28;20229;-62
2022/07/29 03:56:20;;;;;;;11.13;10.00;;;;;;;20.25;64.64;95044.94;5045769;28;20205;-63
2022/07/29 03:58:46;;;;;;;11.38;10.30;;;;;;;20.37;64.30;95044.28;5043367;28;20241;-62
2022/07/29 04:01:13;;;;;;;11.27;10.30;;;;;;;20.21;64.67;95042.94;5044687;28;20267;-62
2022/07/29 04:03:39;;;;;;;11.38;10.35;;;;;;;20.33;64.42;95048.44;5043468;28;20263;-62
2022/07/29 04:06:06;;;;;;;13.65;11.43;;;;;;;20.27;64.75;95050.91;5046193;28;20220;-62
2022/07/29 04:08:33;;;;;;;13.93;11.93;;;;;;;20.27;65.06;95039.41;5047946;28;20378;-62
2022/07/29 04:11:00;;;;;;;12.25;11.23;;;;;;;20.32;65.23;95052.97;5048399;28;20232;-62
2022/07/29 04:13:25;;;;;;;13.18;12.07;;;;;;;20.26;65.02;95046.59;5042009;28;20226;-64
2022/07/29 04:15:51;;;;;;;13.23;11.82;;;;;;;20.31;65.12;95045.16;5047287;28;20228;-62
2022/07/29 04:18:16;;;;;;;11.38;10.38;;;;;;;20.33;65.55;95059.94;5047434;28;20312;-63
2022/07/29 04:20:42;;;;;;;11.77;10.68;;;;;;;20.34;65.21;95039.38;5039946;28;20707;-62
2022/07/29 04:23:07;;;;;;;11.82;10.73;;;;;;;20.42;64.90;95037.31;5045116;28;20201;-62
2022/07/29 04:25:33;;;;;;;10.52;9.57;;;;;;;20.59;63.78;95042.19;5045059;28;20198;-62
2022/07/29 04:28:01;;;;;;;8.65;7.97;;;;;;;20.69;62.86;95034.53;5045697;28;20249;-63
2022/07/29 04:30:27;;;;;;;9.95;8.95;;;;;;;20.67;62.82;95039.25;5044202;28;20229;-62
2022/07/29 04:32:52;;;;;;;7.90;7.20;;;;;;;20.77;62.24;95039.63;5044292;28;20217;-62
2022/07/29 04:35:19;;;;;;;8.68;7.30;;;;;;;20.61;62.79;95045.44;5042145;28;20259;-62
2022/07/29 04:37:45;;;;;;;9.32;7.38;;;;;;;20.85;61.84;95057.22;5048625;28;20225;-62
2022/07/29 04:40:11;;;;;;;8.30;7.57;;;;;;;20.98;61.70;95056.34;5058633;28;20318;-62
2022/07/29 04:42:37;;;;;;;8.68;7.70;;;;;;;20.99;61.22;95058.00;5062679;28;20241;-62
2022/07/29 04:45:03;;;;;;;8.48;7.60;;;;;;;20.86;61.88;95059.72;5062449;28;20213;-62
2022/07/29 04:47:29;;;;;;;8.88;7.70;;;;;;;20.98;61.73;95059.81;5042481;28;20228;-62
2022/07/29 04:49:55;;;;;;;8.25;6.65;;;;;;;21.00;61.08;95063.13;5044291;28;20216;-62
2022/07/29 04:52:21;;;;;;;7.22;6.60;;;;;;;21.00;60.70;95054.28;5042256;28;20233;-63
2022/07/29 04:54:47;;;;;;;6.95;6.03;;;;;;;20.93;60.84;95062.34;5039969;28;20225;-63
2022/07/29 04:57:12;;;;;;;7.88;6.53;;;;;;;20.99;60.85;95061.50;5044999;28;20240;-62
2022/07/29 04:59:37;;;;;;;6.70;6.10;;;;;;;20.93;61.00;95073.88;5047172;28;20221;-63
2022/07/29 05:02:03;;;;;;;7.97;6.95;;;;;;;21.09;60.53;95075.19;5045167;28;20213;-63
2022/07/29 05:04:28;;;;;;;6.90;6.40;;;;;;;21.29;60.09;95075.06;5042401;28;20209;-63
2022/07/29 05:06:54;;;;;;;7.03;6.30;;;;;;;21.39;59.80;95066.59;5060449;28;20225;-63
2022/07/29 05:09:20;;;;;;;8.07;6.50;;;;;;;21.35;59.73;95068.00;5043741;28;20275;-62
2022/07/29 05:11:46;;;;;;;7.05;6.45;;;;;;;21.31;59.79;95069.50;5059128;28;20283;-63
2022/07/29 05:14:11;;;;;;;7.00;6.30;;;;;;;21.33;59.73;95067.41;5046758;28;20209;-62
2022/07/29 05:16:36;;;;;;;7.78;7.10;;;;;;;21.33;59.90;95073.59;5042721;28;20288;-63
2022/07/29 05:19:02;;;;;;;8.15;7.32;;;;;;;21.43;59.69;95081.16;5044685;28;20221;-63
2022/07/29 05:21:27;;;;;;;7.68;6.82;;;;;;;21.33;59.74;95075.44;5041433;28;20312;-63
2022/07/29 05:23:53;;;;;;;8.48;7.45;;;;;;;21.33;59.44;95078.09;5039168;28;20255;-63
2022/07/29 05:26:18;;;;;;;7.60;6.90;;;;;;;21.40;59.40;95075.44;5041872;28;20255;-63
2022/07/29 05:28:44;;;;;;;9.73;7.22;;;;;;;21.55;59.49;95084.78;5030967;28;20205;-63
2022/07/29 05:31:09;;;;;;;7.85;7.05;;;;;;;21.49;59.38;95084.81;5043202;28;20236;-62
2022/07/29 05:33:34;;;;;;;8.70;7.30;;;;;;;21.61;59.24;95068.88;5043583;28;20223;-63
2022/07/29 05:36:00;;;;;;;7.28;6.68;;;;;;;21.76;59.03;95072.06;5062770;28;20228;-62
2022/07/29 05:38:25;;;;;;;7.50;6.80;;;;;;;21.79;58.71;95075.09;5045652;28;20257;-62
2022/07/29 05:40:52;;;;;;;10.43;7.63;;;;;;;21.84;58.96;95076.28;5043402;28;20271;-62
2022/07/29 05:43:17;;;;;;;8.18;7.38;;;;;;;21.94;58.35;95079.28;5054750;28;20738;-62
2022/07/29 05:45:42;;;;;;;9.30;7.82;;;;;;;21.89;58.24;95071.09;5044279;28;20257;-62
2022/07/29 05:48:08;;;;;;;8.98;8.00;;;;;;;22.04;57.81;95076.91;5059993;28;20221;-62
2022/07/29 05:50:33;;;;;;;8.07;7.25;;;;;;;22.06;58.16;95076.69;5041279;28;20224;-62
2022/07/29 05:52:59;;;;;;;10.55;7.30;;;;;;;22.13;57.93;95080.09;5064609;28;20284;-61
2022/07/29 05:55:24;;;;;;;9.85;7.57;;;;;;;22.29;57.41;95081.41;5062233;28;20217;-62
2022/07/29 05:57:52;;;;;;;8.70;7.50;;;;;;;22.44;55.93;95082.69;5038494;28;20228;-62
2022/07/29 06:00:17;;;;;;;7.90;7.20;;;;;;;22.51;55.92;95085.31;5040729;28;20547;-61
2022/07/29 06:02:42;;;;;;;10.20;7.80;;;;;;;22.58;56.17;95071.81;5041533;28;20590;-64
2022/07/29 06:05:08;;;;;;;8.63;7.78;;;;;;;22.30;56.39;95073.16;5057841;28;20301;-65
2022/07/29 06:07:33;;;;;;;8.68;7.88;;;;;;;22.47;56.46;95086.78;5060749;28;20210;-62
2022/07/29 06:09:59;;;;;;;10.63;8.02;;;;;;;22.50;55.63;95082.84;5044076;28;20229;-63
2022/07/29 06:12:24;;;;;;;9.77;8.07;;;;;;;22.54;55.35;95087.53;5059583;28;20244;-63
2022/07/29 06:14:50;;;;;;;7.57;6.88;;;;;;;22.61;55.45;95085.59;5042311;28;20232;-63
2022/07/29 06:17:16;;;;;;;8.07;7.35;;;;;;;22.75;55.03;95088.06;5040324;28;20775;-64
2022/07/29 06:19:42;;;;;;;7.93;6.07;;;;;;;22.76;54.57;95089.72;5040303;28;20201;-66
2022/07/29 06:22:07;;;;;;;9.15;6.22;;;;;;;22.63;55.00;95088.03;5057398;28;20217;-62
2022/07/29 06:24:33;;;;;;;12.10;7.07;;;;;;;22.63;54.63;95083.47;5041590;28;20217;-64
2022/07/29 06:26:58;;;;;;;7.63;6.30;;;;;;;22.77;54.37;95080.63;5045591;28;20277;-60
2022/07/29 06:29:24;;;;;;;10.52;6.47;;;;;;;22.92;54.82;95082.94;5044059;28;20229;-62
2022/07/29 06:31:49;;;;;;;6.82;6.05;;;;;;;22.95;53.94;95087.84;5045057;28;20206;-62
2022/07/29 06:34:15;;;;;;;7.03;6.32;;;;;;;23.04;53.89;95084.66;5044406;28;20217;-62
2022/07/29 06:36:40;;;;;;;6.72;6.05;;;;;;;22.98;53.97;95074.00;5059657;28;20274;-62
2022/07/29 06:39:07;;;;;;;6.35;5.75;;;;;;;23.14;53.86;95081.41;5039051;28;20530;-65
2022/07/29 06:41:33;;;;;;;8.27;6.65;;;;;;;23.10;53.71;95075.69;5039725;28;20225;-65
2022/07/29 06:43:59;;;;;;;7.28;6.60;;;;;;;23.14;53.87;95075.22;5039395;28;20215;-63
2022/07/29 06:46:24;;;;;;;8.20;7.50;;;;;;;23.10;54.23;95081.03;5038412;28;20209;-64
2022/07/29 06:48:50;;;;;;;7.50;6.85;;;;;;;23.19;54.21;95078.03;5034327;28;20213;-63
2022/07/29 06:51:17;;;;;;;7.75;6.95;;;;;;;23.42;54.04;95072.75;5035205;28;20217;-64
2022/07/29 06:53:42;;;;;;;8.30;7.50;;;;;;;23.34;54.04;95073.88;5036687;28;20258;-63
2022/07/29 06:56:08;;;;;;;8.02;7.05;;;;;;;23.46;54.43;95073.09;5053441;28;20749;-63
2022/07/29 06:58:34;;;;;;;7.93;6.75;;;;;;;23.36;54.45;95078.19;5036199;28;20522;-64
2022/07/29 07:01:03;;;;;;;6.30;5.72;;;;;;;23.62;53.29;95079.66;5039047;28;20213;-63
2022/07/29 07:03:28;;;;;;;18.42;7.32;;;;;;;23.74;52.92;95075.16;5038717;28;20256;-66
2022/07/29 07:05:55;;;;;;;8.50;7.00;;;;;;;23.72;53.93;95075.38;5034613;28;20242;-65
2022/07/29 07:08:21;;;;;;;6.97;6.28;;;;;;;23.81;52.94;95070.47;5034900;28;20228;-63
2022/07/29 07:10:47;;;;;;;7.20;6.07;;;;;;;23.75;53.25;95066.84;5037063;28;20198;-63
2022/07/29 07:13:13;;;;;;;6.70;6.10;;;;;;;23.82;53.68;95069.44;5051822;28;20229;-61
2022/07/29 07:15:38;;;;;;;7.95;5.90;;;;;;;24.05;51.94;95070.47;5039298;28;20256;-61
2022/07/29 07:18:05;;;;;;;8.23;5.88;;;;;;;23.81;52.75;95067.78;5044955;28;20229;-61
2022/07/29 07:20:32;;;;;;;5.95;5.38;;;;;;;23.97;51.92;95066.25;5060688;28;20236;-62
2022/07/29 07:22:57;;;;;;;5.97;5.47;;;;;;;23.91;52.33;95059.16;5044536;28;20217;-63
2022/07/29 07:25:23;;;;;;;6.30;5.57;;;;;;;24.15;51.69;95054.56;5045102;28;20271;-62
2022/07/29 07:27:49;;;;;;;6.30;5.65;;;;;;;24.32;50.99;95058.16;5039524;28;20241;-64
2022/07/29 07:30:14;;;;;;;5.95;5.30;;;;;;;24.26;51.27;95055.63;5043018;28;20229;-63
2022/07/29 07:32:40;;;;;;;5.55;5.15;;;;;;;24.41;49.84;95055.94;5044794;28;20229;-63
2022/07/29 07:35:07;;;;;;;5.80;5.30;;;;;;;24.45;50.14;95053.63;5061904;28;20305;-64
2022/07/29 07:37:33;;;;;;;5.93;5.35;;;;;;;24.34;50.08;95053.38;5048289;28;20245;-62
2022/07/29 07:39:59;;;;;;;5.05;4.65;;;;;;;24.42;49.48;95054.88;5048749;28;21010;-63
2022/07/29 07:42:24;;;;;;;5.28;4.50;;;;;;;24.63;48.69;95061.53;5034637;28;20250;-63
2022/07/29 07:44:50;;;;;;;5.40;4.53;;;;;;;24.60;48.09;95057.44;5024325;28;20706;-64
2022/07/29 07:47:19;;;;;;;4.70;4.30;;;;;;;24.54;49.02;95054.88;5027142;28;20236;-63
2022/07/29 07:49:47;;;;;;;8.45;4.32;;;;;;;24.63;47.92;95061.53;5027555;28;20197;-63
2022/07/29 07:52:13;;;;;;;4.63;4.22;;;;;;;24.71;48.09;95053.06;5027936;28;20261;-66
2022/07/29 07:54:39;;;;;;;5.22;4.72;;;;;;;24.67;48.41;95056.47;5030469;28;20252;-64
2022/07/29 07:57:04;;;;;;;7.85;4.38;;;;;;;24.74;48.01;95055.28;5027615;28;20282;-63
2022/07/29 07:59:29;;;;;;;4.95;4.45;;;;;;;24.86;47.96;95060.63;5010007;28;20222;-63
2022/07/29 08:01:55;;;;;;;5.53;5.00;;;;;;;24.91;48.12;95059.91;5055307;28;20201;-64
2022/07/29 08:04:20;;;;;;;5.30;4.80;;;;;;;24.91;48.32;95054.50;5044578;28;20227;-63
2022/07/29 08:06:46;;;;;;;4.95;4.55;;;;;;;24.93;48.39;95053.22;5030474;28;20217;-63
2022/07/29 08:09:11;;;;;;;4.80;4.50;;;;;;;25.08;46.65;95064.28;5028443;28;20226;-62
2022/07/29 08:11:36;;;;;;;4.45;4.10;;;;;;;25.06;46.39;95057.50;5029092;28;20222;-65
2022/07/29 08:14:02;;;;;;;5.32;4.35;;;;;;;25.03;46.22;95057.97;5029596;28;20214;-64
2022/07/29 08:16:28;;;;;;;4.05;3.75;;;;;;;25.00;45.73;95056.59;5046562;28;20222;-64
2022/07/29 08:18:56;;;;;;;3.95;3.50;;;;;;;25.11;45.57;95056.78;5028864;28;20279;-64
2022/07/29 08:21:23;;;;;;;4.18;3.72;;;;;;;25.17;45.15;95055.84;5024774;28;20265;-64
2022/07/29 08:23:52;;;;;;;4.45;4.10;;;;;;;25.26;45.08;95054.38;5033152;28;20222;-65
2022/07/29 08:26:22;;;;;;;3.75;3.45;;;;;;;25.29;45.15;95051.22;5044851;28;20201;-64
2022/07/29 08:28:50;;;;;;;5.25;3.63;;;;;;;25.35;44.91;95052.94;5030245;28;20198;-64
2022/07/29 08:31:16;;;;;;;3.97;3.63;;;;;;;25.50;43.66;95052.34;5060251;28;20218;-63
2022/07/29 08:33:42;;;;;;;4.40;3.65;;;;;;;25.53;43.87;95050.00;5021953;28;20293;-63
2022/07/29 08:36:08;;;;;;;5.63;5.13;;;;;;;25.61;43.30;95056.03;5024688;28;20226;-63
2022/07/29 08:38:34;;;;;;;4.30;3.90;;;;;;;25.57;42.33;95047.63;5022523;28;20241;-63
2022/07/29 08:41:00;;;;;;;4.15;3.63;;;;;;;25.77;42.47;95049.00;5054935;28;20217;-63
2022/07/29 08:43:27;;;;;;;3.65;3.35;;;;;;;25.91;42.28;95051.16;5058028;28;20264;-63
2022/07/29 08:45:53;;;;;;;3.33;3.13;;;;;;;26.07;42.24;95048.69;5047066;28;20222;-63
2022/07/29 08:48:21;;;;;;;3.67;3.17;;;;;;;26.05;40.76;95046.22;5041320;28;20222;-61
2022/07/29 08:50:49;;;;;;;3.42;3.13;;;;;;;26.05;41.27;95040.03;5020949;28;20293;-61
2022/07/29 08:53:17;;;;;;;3.50;3.30;;;;;;;26.25;40.95;95037.63;5025324;28;20573;-61
2022/07/29 08:55:44;;;;;;;3.30;3.03;;;;;;;26.23;40.70;95037.06;5022902;28;20206;-62
2022/07/29 08:58:10;;;;;;;4.35;3.40;;;;;;;26.41;39.83;95033.25;5059044;28;20284;-61
2022/07/29 09:00:41;;;;;;;3.92;3.58;;;;;;;26.57;39.70;95024.31;5058661;28;20230;-62
2022/07/29 09:03:09;;;;;;;4.03;3.72;;;;;;;26.58;39.63;95028.63;5037546;28;20233;-61
2022/07/29 09:05:35;;;;;;;5.50;3.50;;;;;;;26.67;39.74;95033.56;5042075;28;20228;-60
2022/07/29 09:08:01;;;;;;;6.07;3.58;;;;;;;26.61;38.95;95032.69;5022519;28;20210;-62
2022/07/29 09:10:27;;;;;;;3.63;3.42;;;;;;;26.45;39.12;95031.66;5042077;28;20241;-62
2022/07/29 09:12:54;;;;;;;5.85;3.40;;;;;;;26.31;40.24;95028.53;5027497;28;20226;-61
2022/07/29 09:15:20;;;;;;;4.43;3.78;;;;;;;26.26;39.68;95019.56;5020226;28;20230;-61
2022/07/29 09:17:49;;;;;;;3.67;3.38;;;;;;;26.26;39.40;95025.78;5022725;28;20229;-61
2022/07/29 09:20:20;;;;;;;3.70;3.40;;;;;;;26.20;40.22;95028.66;5019687;28;20205;-62
2022/07/29 09:22:48;;;;;;;4.63;3.20;;;;;;;26.11;40.30;95029.06;5028686;28;20198;-62
2022/07/29 09:25:31;;;;;;;3.97;3.25;;;;;;;26.16;40.04;95026.44;5042173;28;20723;-62
2022/07/29 09:28:16;;;;;;;4.30;3.85;;;;;;;26.26;41.73;95023.06;5040422;28;20255;-61
2022/07/29 09:30:52;;;;;;;5.13;4.50;;;;;;;26.75;39.44;95022.34;5041546;28;20337;-62
2022/07/29 09:33:18;;;;;;;4.22;3.90;;;;;;;27.02;39.25;95025.03;5042384;28;20216;-61
2022/07/29 09:35:44;;;;;;;7.20;4.03;;;;;;;27.24;40.04;95025.84;5046208;28;20229;-60
2022/07/29 09:38:12;;;;;;;4.32;3.90;;;;;;;27.34;37.54;95018.91;5045945;28;20233;-63
2022/07/29 09:40:38;;;;;;;5.78;4.95;;;;;;;27.57;37.54;95015.06;5062309;28;20217;-61
2022/07/29 09:43:11;;;;;;;4.47;4.05;;;;;;;27.75;37.83;95025.47;5042669;28;20217;-62
2022/07/29 09:45:37;;;;;;;4.97;4.57;;;;;;;27.97;36.73;95011.84;5039913;28;20377;-62
2022/07/29 09:48:26;;;;;;;4.97;4.57;;;;;;;28.12;37.29;95014.66;5041961;28;20225;-62
2022/07/29 09:50:52;;;;;;;4.50;4.10;;;;;;;28.15;36.78;95013.31;5023273;28;20514;-62
2022/07/29 09:53:34;;;;;;;5.07;4.05;;;;;;;28.02;37.34;95016.47;5028130;28;20209;-60
2022/07/29 09:56:00;;;;;;;4.78;4.03;;;;;;;27.95;37.83;95005.06;5045344;28;20270;-62
2022/07/29 09:58:26;;;;;;;4.70;3.55;;;;;;;27.86;37.96;95007.47;5028181;28;20234;-61
2022/07/29 10:00:53;;;;;;;4.63;4.10;;;;;;;27.91;37.44;94996.69;5025635;28;20232;-61
2022/07/29 10:03:19;;;;;;;6.18;4.93;;;;;;;27.83;36.69;94997.19;5010644;28;20225;-62
2022/07/29 10:05:45;;;;;;;4.13;3.72;;;;;;;27.67;37.69;94999.72;5021058;28;20306;-62
2022/07/29 10:08:12;;;;;;;4.82;4.40;;;;;;;27.69;37.91;94996.75;5024323;28;20221;-61
2022/07/29 10:10:42;;;;;;;7.97;4.65;;;;;;;27.76;37.83;94989.25;5043205;28;20216;-63
2022/07/29 10:13:13;;;;;;;4.35;3.92;;;;;;;27.84;37.98;94990.69;5027776;28;20230;-61
2022/07/29 10:15:42;;;;;;;4.70;4.30;;;;;;;27.75;38.19;94986.78;5045380;28;20248;-61
2022/07/29 10:18:09;;;;;;;4.30;4.00;;;;;;;27.78;37.37;94989.00;5040049;28;20286;-62
2022/07/29 10:20:35;;;;;;;4.75;4.03;;;;;;;27.89;37.69;94977.22;5033746;28;20229;-62
2022/07/29 10:23:01;;;;;;;4.28;3.80;;;;;;;28.22;35.87;94975.22;5021176;28;20313;-65
2022/07/29 10:25:27;;;;;;;3.95;3.50;;;;;;;28.64;35.34;94977.03;5024079;28;20354;-63
2022/07/29 10:27:53;;;;;;;3.42;3.22;;;;;;;29.08;34.71;94973.88;5028699;28;20268;-62
2022/07/29 10:30:20;;;;;;;4.38;4.03;;;;;;;29.33;34.56;94978.53;5047034;28;20277;-64
2022/07/29 10:33:11;;;;;;;4.90;4.60;;;;;;;29.57;34.57;94962.53;5060667;28;20210;-62
2022/07/29 10:35:58;;;;;;;5.28;4.85;;;;;;;29.84;34.31;94968.47;5038061;28;20300;-64
2022/07/29 10:38:36;;;;;;;5.05;4.65;;;;;;;30.20;33.74;94960.22;5052370;28;20547;-65
2022/07/29 10:43:48;;;;;;;4.35;3.95;;;;;;;30.47;32.15;94959.06;5039346;28;20207;-64
2022/07/29 10:46:14;;;;;;;4.28;3.22;;;;;;;30.56;30.56;94952.00;5045019;28;20224;-64
2022/07/29 10:49:05;;;;;;;3.88;3.58;;;;;;;30.18;31.25;94940.72;5045239;28;20221;-64
2022/07/29 10:51:55;;;;;;;4.22;3.83;;;;;;;30.54;32.02;94960.41;5044647;28;20545;-64
2022/07/29 10:54:39;;;;;;;4.95;4.00;;;;;;;30.82;31.64;94941.00;5035712;28;20229;-63
2022/07/29 10:57:12;;;;;;;3.65;3.40;;;;;;;31.01;30.35;94941.97;5032961;28;20228;-63
2022/07/29 10:59:37;;;;;;;3.83;3.30;;;;;;;31.25;29.88;94943.94;5042003;28;20241;-63
2022/07/29 11:02:47;;;;;;;4.90;3.58;;;;;;;31.36;29.94;94937.38;5044101;28;20202;-64
2022/07/29 11:05:18;;;;;;;5.82;3.70;;;;;;;31.48;29.36;94935.09;5045382;28;20201;-64
2022/07/29 11:08:12;;;;;;;4.50;3.08;;;;;;;31.77;29.01;94931.56;5056981;28;20198;-63
2022/07/29 11:10:38;;;;;;;3.70;3.40;;;;;;;32.01;29.12;94929.69;5045396;28;20225;-65
2022/07/29 11:13:04;;;;;;;3.75;3.10;;;;;;;32.14;28.13;94925.47;5048600;28;20229;-65
2022/07/29 11:15:55;;;;;;;6.72;3.55;;;;;;;32.35;27.98;94931.50;5045615;28;20234;-63
2022/07/29 11:18:20;;;;;;;3.42;3.22;;;;;;;32.43;28.02;94927.31;5044013;28;20279;-63
2022/07/29 11:20:52;;;;;;;3.72;3.42;;;;;;;32.64;27.50;94928.69;5048341;28;20226;-63
2022/07/29 11:23:38;;;;;;;4.10;3.45;;;;;;;32.88;26.97;94933.25;5051321;28;20193;-63
2022/07/29 11:26:09;;;;;;;3.88;3.58;;;;;;;32.88;26.66;94922.34;5055271;28;20205;-62
2022/07/29 11:28:47;;;;;;;5.05;3.65;;;;;;;33.06;26.61;94918.03;5047455;28;20198;-64
2022/07/29 11:31:13;;;;;;;5.53;4.03;;;;;;;33.19;26.52;94917.28;5049280;28;20232;-63
2022/07/29 11:33:39;;;;;;;4.90;4.05;;;;;;;33.12;26.47;94919.56;5033156;28;20218;-63
2022/07/29 11:36:13;;;;;;;4.25;3.90;;;;;;;33.41;25.90;94918.56;5026741;28;20222;-63
2022/07/29 11:38:39;;;;;;;3.95;3.65;;;;;;;33.50;26.21;94927.69;5035507;28;20224;-63
2022/07/29 11:41:24;;;;;;;4.30;3.65;;;;;;;33.56;25.17;94921.06;5050163;28;20201;-63